createdAt,value
2024-02-04T00:02:40.720Z,7.09
2024-02-04T00:12:43.691Z,7.1
2024-02-04T00:22:46.599Z,6.94
2024-02-04T00:32:49.135Z,6.98
2024-02-04T00:42:52.471Z,7.09
2024-02-04T00:52:55.199Z,6.93
2024-02-04T01:02:57.584Z,6.81
2024-02-04T01:12:59.562Z,6.69
2024-02-04T01:23:03.139Z,6.53
2024-02-04T01:33:05.065Z,6.57
2024-02-04T01:43:08.585Z,6.74
2024-02-04T01:53:12.115Z,6.77
2024-02-04T02:03:14.642Z,6.52
2024-02-04T02:13:17.183Z,6.69
2024-02-04T02:23:19.867Z,6.64
2024-02-04T02:33:21.614Z,6.84
2024-02-04T02:43:24.568Z,6.82
2024-02-04T02:53:26.412Z,6.92
2024-02-04T03:03:29.247Z,6.88
2024-02-04T03:13:33.369Z,7.01
2024-02-04T03:23:35.563Z,7.05
2024-02-04T03:33:38.010Z,7.38
2024-02-04T03:43:41.857Z,7.36
2024-02-04T03:53:44.421Z,7.37
2024-02-04T04:03:47.494Z,7.27
2024-02-04T04:13:51.006Z,7.38
2024-02-04T04:23:53.501Z,7.48
2024-02-04T04:33:56.076Z,7.35
2024-02-04T04:43:59.914Z,7.56
2024-02-04T04:54:02.555Z,7.39
2024-02-04T05:04:05.417Z,7.43
2024-02-04T05:14:09.608Z,7.37
2024-02-04T05:24:12.161Z,7.52
2024-02-04T05:34:14.634Z,7.32
2024-02-04T05:44:17.421Z,7.26
2024-02-04T05:54:19.778Z,7.36
2024-02-04T06:04:22.646Z,7.37
2024-02-04T06:14:25.973Z,7.25
2024-02-04T06:24:28.819Z,7.19
2024-02-04T06:34:31.684Z,7.02
2024-02-04T06:44:35.057Z,7.14
2024-02-04T06:54:37.238Z,7.13
2024-02-04T07:04:43.147Z,7.13
2024-02-04T07:14:45.905Z,7.21
2024-02-04T07:24:48.413Z,7.18
2024-02-04T07:34:51.129Z,7.38
2024-02-04T07:44:55.155Z,7.47
2024-02-04T07:54:57.396Z,7.32
2024-02-04T08:05:00.854Z,7.37
2024-02-04T08:15:05.218Z,7.45
2024-02-04T08:25:08.796Z,7.69
2024-02-04T08:35:12.488Z,7.69
2024-02-04T08:45:15.875Z,7.82
2024-02-04T08:55:26.401Z,7.82
2024-02-04T09:05:28.844Z,7.84
2024-02-04T09:15:31.506Z,7.79
2024-02-04T09:25:35.179Z,7.96
2024-02-04T09:35:39.015Z,7.82
2024-02-04T09:45:43.342Z,7.88
2024-02-04T09:55:54.171Z,7.92
2024-02-04T10:05:58.048Z,8.02
2024-02-04T10:16:01.304Z,8.13
2024-02-04T10:26:06.526Z,7.84
2024-02-04T10:36:18.903Z,7.81
2024-02-04T10:46:21.685Z,7.87
2024-02-04T10:56:24.230Z,8.09
2024-02-04T11:06:27.703Z,8.55
2024-02-04T11:16:31.063Z,8.43
2024-02-04T11:26:33.508Z,8.57
2024-02-04T11:36:36.166Z,8.44
2024-02-04T11:46:39.757Z,8.38
2024-02-04T11:56:42.822Z,8.48
2024-02-04T12:06:45.943Z,8.39
2024-02-04T12:16:48.767Z,8.24
2024-02-04T12:26:51.639Z,8.27
2024-02-04T12:36:53.790Z,8.09
2024-02-04T12:46:57.214Z,8.18
2024-02-04T12:57:01.670Z,8.08
2024-02-04T13:07:06.468Z,8.09
2024-02-04T13:17:09.523Z,8.05
2024-02-04T13:27:12.357Z,7.94
2024-02-04T13:37:14.928Z,7.95
2024-02-04T13:47:17.805Z,7.87
2024-02-04T13:57:20.271Z,7.84
2024-02-04T14:07:23.206Z,7.84
2024-02-04T14:17:26.305Z,7.74
2024-02-04T14:27:29.516Z,7.72
2024-02-04T14:37:32.664Z,7.8
2024-02-04T14:47:34.988Z,7.77
2024-02-04T14:57:37.980Z,7.73
2024-02-04T15:07:40.814Z,7.69
2024-02-04T15:17:42.976Z,7.74
2024-02-04T15:27:46.357Z,7.78
2024-02-04T15:37:49.221Z,7.56
2024-02-04T15:47:51.252Z,7.27
2024-02-04T15:57:55.202Z,7.3
2024-02-04T16:07:58.339Z,7.29
2024-02-04T16:18:00.763Z,7.12
2024-02-04T16:28:04.140Z,7.09
2024-02-04T16:38:07.084Z,6.94
2024-02-04T16:48:17.820Z,6.8
2024-02-04T16:58:21.970Z,6.87
2024-02-04T17:08:25.258Z,6.63
2024-02-04T17:18:27.244Z,6.65
2024-02-04T17:28:30.295Z,6.54
2024-02-04T17:38:32.814Z,6.57
2024-02-04T17:48:35.411Z,6.61
2024-02-04T17:58:39.446Z,6.58
2024-02-04T18:08:42.394Z,6.69
2024-02-04T18:18:44.927Z,6.63
2024-02-04T18:28:49.060Z,6.51
2024-02-04T18:38:51.117Z,6.33
2024-02-04T18:48:54.230Z,6.47
2024-02-04T18:58:57.433Z,6.47
2024-02-04T19:09:08.946Z,6.53
2024-02-04T19:19:11.440Z,6.68
2024-02-04T19:29:14.945Z,6.82
2024-02-04T19:39:17.605Z,6.9
2024-02-04T19:49:20.897Z,6.95
2024-02-04T19:59:24.091Z,7.09
2024-02-04T20:09:26.798Z,7.29
2024-02-04T20:19:28.750Z,7.42
2024-02-04T20:29:31.854Z,7.63
2024-02-04T20:39:34.420Z,7.94
2024-02-04T20:49:37.166Z,8.27
2024-02-04T20:59:39.650Z,8.33
2024-02-04T21:09:42.639Z,8.48
2024-02-04T21:19:45.877Z,8.52
2024-02-04T21:29:49.836Z,8.75
2024-02-04T21:39:51.779Z,8.74
2024-02-04T21:49:55.129Z,8.78
2024-02-04T21:59:58.715Z,8.8
2024-02-04T22:10:01.398Z,8.78
2024-02-04T22:20:04.757Z,8.78
2024-02-04T22:30:08.114Z,8.82
2024-02-04T22:40:10.371Z,8.76
2024-02-04T22:50:13.521Z,8.77
2024-02-04T23:00:15.466Z,8.8
2024-02-04T23:10:18.229Z,8.85
2024-02-04T23:20:22.076Z,8.76
2024-02-04T23:30:25.698Z,8.79
2024-02-04T23:40:28.280Z,8.83
2024-02-04T23:50:31.666Z,8.91
